Marrakesch, Marokko

07:58 AM WEST am 21. Oktober 2014 (GMT +0100)
Menara | Change Station
CLOSE
Current Station
Flughafen
Location: Marrakech,
Höhe: 1529 ft
Wetterstationen in der Umgebung

Höhe 1529 ft 31.61 °N, 8.04 °W | Updated 28 minutes ago

Clear
Heiter
64 °F
gefühlte 64 °F
N
5
Wind Wechselnd Wind aus Ost

Heute
Max. -- | schwach -- °F
--% Regenrisiko
Gestern
Max. -- | schwach -- °F
Precip. -- inch
7:39 AM 6:53 PM
Letztes Viertel, 7% visible
Druck 30.15 inch
Sichtweite -9999.0 Meilen
Wolken
Taupunkt 37 °F
Feuchtigkeit 37%
Regen 0.00 inch
Schneehöhe Nicht verfügbar..
UV Nicht verfügbar..
Pollen Nicht verfügbar..
Luftqualität Nicht verfügbar..
Flu Activity Nicht verfügbar..
METAR GMMX 210630Z 09004KT CAVOK 18/03 Q1021 NOSIG

More Conditions Fewer Conditions

Druck 30.15 inch
Sichtweite -9999.0 Meilen
Wolken
Taupunkt 37 °F
Feuchtigkeit 37%
Regen 0.00 inch
Schneehöhe Nicht verfügbar..
UV Nicht verfügbar..
Pollen Nicht verfügbar..
Luftqualität Nicht verfügbar..
Flu Activity Nicht verfügbar..
METAR GMMX 210630Z 09004KT CAVOK 18/03 Q1021 NOSIG

More Conditions Fewer Conditions

10-Day Weather Forecast

Almanac

Astronomie

Oct. 21, 2014 Aufgang Untergang
Genaue Zeit 07:39 WEST 18:53 WEST
Bürgerliche Dämmerung 07:14 WEST 19:18 WEST
Nautische Dämmerung 06:46 WEST 19:46 WEST
Astronomische Dämmerung 06:18 WEST 20:14 WEST
Mond 05:19 WEST 17:33 WEST
Länge des sichtbaren Lichts 12h 03m
Tageslänge
11h 14m
Tomorrow will be 1m 49s shorter.
Letztes Viertel, 7% of the Moon is Illuminated
Heute
Letztes Viertel
Okt 23
Neu
Okt 30
Erstes Viertel
Nov 6
Vollmond
Nov 14
Letztes Viertel

Gestrige Extrema

Country Highs Country Lows

Community

WunderPhotos

Upload Photos

1,763,617 Fotos hochgeladen!

Nearby

Schneehöhe

Not available.

Erdbebenaktivität

Stadt Distance Mag. Time & Date
No recent earthquake activity has been reported nearby.
Minimum magnitude displayed is 2.5.

küstennahe Wassertemperaturen

Ort Temperatur
Kein Stationsbericht

Wetterstationen in der Umgebung